TAM8130 SBGR-SAEZ
Flight info
| Callsign | TAM8130 |
|---|---|
| Flight time | 2h 38m |
| Altitude | 34000 |
| Route | UBSOD UZ38 UMDEX DCT CXS DCT UMRUD UN741 PAPIX PAPIX7A |
| Aircraft | A21N/M-SDE3FGHIRWY/LB1 |
Departure
| Time | 2026-05-06 06:54 |
|---|---|
| Airport | São Paulo/Guarulhos–Governor André Franco Montoro International Airport (SBGR) |
Arrival
| Time | 2026-05-06 09:32 |
|---|---|
| Airport | Ezeiza International Airport - Ministro Pistarini (SAEZ) |
| Time | Latitude | Longitude | Altitude | Speed | Heading |
|---|---|---|---|---|---|
| 2026-05-06 06:41 | -23.42851 | -46.48227 | 2449 ft | 0 kts | 266° |
| 2026-05-06 06:44 | -23.42851 | -46.48215 | 2449 ft | 2 kts | 266° |
| 2026-05-06 06:45 | -23.42850 | -46.48202 | 2449 ft | 0 kts | 266° |
| 2026-05-06 06:45 | -23.42848 | -46.48189 | 2449 ft | 2 kts | 237° |
| 2026-05-06 06:45 | -23.42837 | -46.48177 | 2449 ft | 2 kts | 204° |
| 2026-05-06 06:45 | -23.42825 | -46.48174 | 2449 ft | 0 kts | 178° |
| 2026-05-06 06:46 | -23.42818 | -46.48175 | 2449 ft | 1 kts | 174° |
| 2026-05-06 06:46 | -23.42817 | -46.48175 | 2449 ft | 0 kts | 174° |
| 2026-05-06 06:49 | -23.42819 | -46.48175 | 2449 ft | 0 kts | 174° |
| 2026-05-06 06:49 | -23.42824 | -46.48175 | 2449 ft | 1 kts | 175° |
| 2026-05-06 06:49 | -23.42842 | -46.48173 | 2449 ft | 3 kts | 175° |
| 2026-05-06 06:49 | -23.42872 | -46.48170 | 2449 ft | 5 kts | 173° |
| 2026-05-06 06:50 | -23.42913 | -46.48158 | 2449 ft | 7 kts | 153° |
| 2026-05-06 06:50 | -23.42965 | -46.48141 | 2450 ft | 8 kts | 173° |
| 2026-05-06 06:50 | -23.43030 | -46.48134 | 2450 ft | 9 kts | 174° |
| 2026-05-06 06:50 | -23.43103 | -46.48126 | 2451 ft | 10 kts | 171° |
| 2026-05-06 06:51 | -23.43179 | -46.48105 | 2453 ft | 11 kts | 163° |
| 2026-05-06 06:51 | -23.43209 | -46.48096 | 2453 ft | 1 kts | 163° |
| 2026-05-06 06:51 | -23.43212 | -46.48095 | 2453 ft | 0 kts | 163° |
| 2026-05-06 06:52 | -23.43214 | -46.48094 | 2453 ft | 1 kts | 163° |
| 2026-05-06 06:52 | -23.43233 | -46.48088 | 2454 ft | 4 kts | 163° |
| 2026-05-06 06:52 | -23.43271 | -46.48076 | 2455 ft | 7 kts | 163° |
| 2026-05-06 06:52 | -23.43328 | -46.48056 | 2456 ft | 9 kts | 155° |
| 2026-05-06 06:53 | -23.43338 | -46.47992 | 2457 ft | 9 kts | 74° |
| 2026-05-06 06:53 | -23.43282 | -46.47784 | 2458 ft | 63 kts | 73° |
| 2026-05-06 06:53 | -23.43086 | -46.47062 | 2454 ft | 132 kts | 73° |
| 2026-05-06 06:53 | -23.42771 | -46.45896 | 2512 ft | 180 kts | 73° |
| 2026-05-06 06:54 | -23.42422 | -46.44601 | 3145 ft | 181 kts | 73° |
| 2026-05-06 06:54 | -23.42031 | -46.43266 | 3636 ft | 195 kts | 72° |
| 2026-05-06 06:54 | -23.41599 | -46.41809 | 4090 ft | 212 kts | 72° |
| 2026-05-06 06:54 | -23.41135 | -46.40221 | 4493 ft | 232 kts | 73° |
| 2026-05-06 06:55 | -23.40629 | -46.38465 | 4916 ft | 253 kts | 73° |
| 2026-05-06 06:55 | -23.40238 | -46.36555 | 5525 ft | 266 kts | 88° |
| 2026-05-06 06:55 | -23.40485 | -46.34574 | 6400 ft | 268 kts | 107° |
| 2026-05-06 06:55 | -23.41092 | -46.32679 | 7279 ft | 269 kts | 109° |
| 2026-05-06 06:56 | -23.41736 | -46.30760 | 8055 ft | 274 kts | 109° |
| 2026-05-06 06:56 | -23.42391 | -46.28802 | 8609 ft | 277 kts | 109° |
| 2026-05-06 06:56 | -23.43205 | -46.26920 | 8946 ft | 280 kts | 127° |
| 2026-05-06 06:56 | -23.44716 | -46.25552 | 9201 ft | 285 kts | 152° |
| 2026-05-06 06:57 | -23.46665 | -46.25053 | 9525 ft | 297 kts | 179° |
| 2026-05-06 06:57 | -23.48691 | -46.25386 | 10337 ft | 296 kts | 190° |
| 2026-05-06 06:57 | -23.50726 | -46.25828 | 10946 ft | 303 kts | 189° |
| 2026-05-06 06:57 | -23.52837 | -46.26328 | 11234 ft | 320 kts | 197° |
| 2026-05-06 06:58 | -23.54825 | -46.27550 | 11501 ft | 339 kts | 220° |
| 2026-05-06 06:58 | -23.56274 | -46.29646 | 11902 ft | 353 kts | 244° |
| 2026-05-06 06:58 | -23.56938 | -46.32193 | 12511 ft | 357 kts | 258° |
| 2026-05-06 06:58 | -23.57422 | -46.34851 | 13131 ft | 359 kts | 257° |
| 2026-05-06 06:59 | -23.57923 | -46.37523 | 13693 ft | 362 kts | 257° |
| 2026-05-06 06:59 | -23.58441 | -46.40205 | 14265 ft | 364 kts | 256° |
| 2026-05-06 06:59 | -23.58965 | -46.42882 | 14837 ft | 365 kts | 256° |
| 2026-05-06 06:59 | -23.59502 | -46.45603 | 15411 ft | 366 kts | 256° |
| 2026-05-06 07:00 | -23.60037 | -46.48302 | 15915 ft | 368 kts | 256° |
| 2026-05-06 07:00 | -23.60577 | -46.51036 | 16171 ft | 368 kts | 257° |
| 2026-05-06 07:00 | -23.61030 | -46.53756 | 16225 ft | 372 kts | 259° |
| 2026-05-06 07:00 | -23.61447 | -46.56572 | 16690 ft | 374 kts | 259° |
| 2026-05-06 07:01 | -23.61853 | -46.59355 | 17322 ft | 372 kts | 259° |
| 2026-05-06 07:01 | -23.62262 | -46.62137 | 17875 ft | 372 kts | 258° |
| 2026-05-06 07:01 | -23.62913 | -46.64873 | 18364 ft | 373 kts | 249° |
| 2026-05-06 07:01 | -23.63947 | -46.67460 | 18836 ft | 375 kts | 241° |
| 2026-05-06 07:02 | -23.65281 | -46.69896 | 19328 ft | 376 kts | 237° |
| 2026-05-06 07:02 | -23.66693 | -46.72305 | 19800 ft | 378 kts | 236° |
| 2026-05-06 07:02 | -23.68116 | -46.74720 | 20254 ft | 381 kts | 237° |
| 2026-05-06 07:02 | -23.69579 | -46.77122 | 20713 ft | 382 kts | 232° |
| 2026-05-06 07:03 | -23.71382 | -46.79278 | 21185 ft | 383 kts | 222° |
| 2026-05-06 07:03 | -23.73486 | -46.81039 | 21650 ft | 385 kts | 213° |
| 2026-05-06 07:03 | -23.75808 | -46.82553 | 22116 ft | 387 kts | 210° |
| 2026-05-06 07:03 | -23.78126 | -46.84005 | 22544 ft | 389 kts | 210° |
| 2026-05-06 07:04 | -23.80500 | -46.85487 | 22958 ft | 392 kts | 210° |
| 2026-05-06 07:04 | -23.82858 | -46.86963 | 23404 ft | 393 kts | 210° |
| 2026-05-06 07:04 | -23.85224 | -46.88450 | 23843 ft | 395 kts | 211° |
| 2026-05-06 07:04 | -23.87619 | -46.89959 | 24282 ft | 396 kts | 211° |
| 2026-05-06 07:05 | -23.90025 | -46.91476 | 24696 ft | 397 kts | 211° |
| 2026-05-06 07:05 | -23.92409 | -46.92983 | 25079 ft | 399 kts | 211° |
| 2026-05-06 07:05 | -23.94818 | -46.94507 | 25491 ft | 400 kts | 211° |
| 2026-05-06 07:05 | -23.97244 | -46.96043 | 25887 ft | 401 kts | 211° |
| 2026-05-06 07:06 | -23.99649 | -46.97566 | 26265 ft | 403 kts | 211° |
| 2026-05-06 07:06 | -24.02094 | -46.99115 | 26649 ft | 404 kts | 211° |
| 2026-05-06 07:06 | -24.04500 | -47.00638 | 27015 ft | 404 kts | 211° |
| 2026-05-06 07:06 | -24.06959 | -47.02198 | 27364 ft | 406 kts | 211° |
| 2026-05-06 07:07 | -24.09414 | -47.03756 | 27702 ft | 407 kts | 211° |
| 2026-05-06 07:07 | -24.11866 | -47.05313 | 28028 ft | 408 kts | 211° |
| 2026-05-06 07:07 | -24.14348 | -47.06890 | 28189 ft | 414 kts | 211° |
| 2026-05-06 07:07 | -24.16835 | -47.08471 | 28347 ft | 419 kts | 211° |
| 2026-05-06 07:08 | -24.19387 | -47.10093 | 28614 ft | 421 kts | 211° |
| 2026-05-06 07:08 | -24.21904 | -47.11693 | 28927 ft | 422 kts | 211° |
| 2026-05-06 07:08 | -24.24448 | -47.13312 | 29266 ft | 422 kts | 211° |
| 2026-05-06 07:08 | -24.26969 | -47.14965 | 29701 ft | 420 kts | 213° |
| 2026-05-06 07:09 | -24.29416 | -47.16648 | 30139 ft | 417 kts | 213° |
| 2026-05-06 07:09 | -24.31883 | -47.18359 | 30589 ft | 414 kts | 213° |
| 2026-05-06 07:09 | -24.34292 | -47.20031 | 31034 ft | 411 kts | 213° |
| 2026-05-06 07:09 | -24.36719 | -47.21718 | 31471 ft | 409 kts | 213° |
| 2026-05-06 07:10 | -24.39102 | -47.23375 | 31886 ft | 406 kts | 214° |
| 2026-05-06 07:10 | -24.41467 | -47.25019 | 32307 ft | 404 kts | 213° |
| 2026-05-06 07:10 | -24.43850 | -47.26677 | 32703 ft | 402 kts | 214° |
| 2026-05-06 07:10 | -24.46193 | -47.28309 | 33012 ft | 402 kts | 214° |
| 2026-05-06 07:11 | -24.48571 | -47.29964 | 33284 ft | 402 kts | 213° |
| 2026-05-06 07:11 | -24.50944 | -47.31618 | 33577 ft | 402 kts | 214° |
| 2026-05-06 07:11 | -24.53286 | -47.33251 | 33918 ft | 401 kts | 214° |
| 2026-05-06 07:11 | -24.55655 | -47.34900 | 34109 ft | 401 kts | 213° |
| 2026-05-06 07:12 | -24.57992 | -47.36531 | 34110 ft | 401 kts | 214° |
| 2026-05-06 07:12 | -24.62720 | -47.39832 | 34109 ft | 400 kts | 213° |
| 2026-05-06 07:13 | -24.67418 | -47.43115 | 34114 ft | 401 kts | 213° |
| 2026-05-06 07:13 | -24.72114 | -47.46397 | 34110 ft | 399 kts | 214° |
| 2026-05-06 07:14 | -24.76797 | -47.49674 | 34110 ft | 401 kts | 213° |
| 2026-05-06 07:14 | -24.81520 | -47.52984 | 34109 ft | 401 kts | 214° |
| 2026-05-06 07:15 | -24.86205 | -47.56267 | 34108 ft | 400 kts | 214° |
| 2026-05-06 07:15 | -24.90904 | -47.59565 | 34106 ft | 400 kts | 214° |
| 2026-05-06 07:16 | -24.95604 | -47.62867 | 34100 ft | 399 kts | 214° |
| 2026-05-06 07:16 | -25.00288 | -47.66161 | 34104 ft | 399 kts | 214° |
| 2026-05-06 07:17 | -25.04974 | -47.69459 | 34103 ft | 400 kts | 214° |
| 2026-05-06 07:17 | -25.09645 | -47.72747 | 34102 ft | 399 kts | 214° |
| 2026-05-06 07:18 | -25.14348 | -47.76064 | 34103 ft | 399 kts | 214° |
| 2026-05-06 07:18 | -25.19007 | -47.79350 | 34102 ft | 399 kts | 214° |
| 2026-05-06 07:19 | -25.23703 | -47.82669 | 34101 ft | 399 kts | 214° |
| 2026-05-06 07:19 | -25.28367 | -47.85966 | 34103 ft | 399 kts | 214° |
| 2026-05-06 07:20 | -25.33052 | -47.89285 | 34103 ft | 398 kts | 214° |
| 2026-05-06 07:20 | -25.37728 | -47.92596 | 34100 ft | 398 kts | 214° |
| 2026-05-06 07:21 | -25.42380 | -47.95896 | 34104 ft | 399 kts | 214° |
| 2026-05-06 07:21 | -25.47056 | -47.99217 | 34102 ft | 399 kts | 214° |
| 2026-05-06 07:22 | -25.51742 | -48.02547 | 34102 ft | 399 kts | 214° |
| 2026-05-06 07:22 | -25.56400 | -48.05864 | 34097 ft | 399 kts | 214° |
| 2026-05-06 07:23 | -25.61067 | -48.09186 | 34105 ft | 399 kts | 214° |
| 2026-05-06 07:23 | -25.65763 | -48.12528 | 34096 ft | 399 kts | 214° |
| 2026-05-06 07:24 | -25.70426 | -48.15844 | 34097 ft | 398 kts | 214° |
| 2026-05-06 07:24 | -25.75086 | -48.19159 | 34110 ft | 397 kts | 214° |
| 2026-05-06 07:25 | -25.79721 | -48.22462 | 34113 ft | 398 kts | 214° |
| 2026-05-06 07:25 | -25.84391 | -48.25795 | 34115 ft | 398 kts | 214° |
| 2026-05-06 07:26 | -25.89051 | -48.29122 | 34113 ft | 398 kts | 214° |
| 2026-05-06 07:26 | -25.93712 | -48.32454 | 34118 ft | 399 kts | 214° |
| 2026-05-06 07:27 | -25.98390 | -48.35801 | 34117 ft | 398 kts | 214° |
| 2026-05-06 07:27 | -26.03034 | -48.39126 | 34121 ft | 399 kts | 214° |
| 2026-05-06 07:28 | -26.07684 | -48.42461 | 34121 ft | 397 kts | 214° |
| 2026-05-06 07:28 | -26.14672 | -48.47479 | 34117 ft | 398 kts | 214° |
| 2026-05-06 07:29 | -26.19315 | -48.50819 | 34122 ft | 397 kts | 214° |
| 2026-05-06 07:29 | -26.23991 | -48.54182 | 34117 ft | 398 kts | 214° |
| 2026-05-06 07:30 | -26.28632 | -48.57522 | 34122 ft | 397 kts | 214° |
| 2026-05-06 07:30 | -26.33253 | -48.60857 | 34118 ft | 396 kts | 214° |
| 2026-05-06 07:31 | -26.37884 | -48.64199 | 34121 ft | 396 kts | 214° |
| 2026-05-06 07:31 | -26.42523 | -48.67553 | 34123 ft | 396 kts | 215° |
| 2026-05-06 07:32 | -26.47137 | -48.70892 | 34120 ft | 396 kts | 215° |
| 2026-05-06 07:32 | -26.51740 | -48.74277 | 34121 ft | 396 kts | 216° |
| 2026-05-06 07:33 | -26.56337 | -48.77669 | 34119 ft | 396 kts | 215° |
| 2026-05-06 07:33 | -26.60943 | -48.81072 | 34124 ft | 396 kts | 215° |
| 2026-05-06 07:34 | -26.65519 | -48.84451 | 34135 ft | 395 kts | 215° |
| 2026-05-06 07:34 | -26.70141 | -48.87837 | 34135 ft | 396 kts | 215° |
| 2026-05-06 07:35 | -26.74754 | -48.91201 | 34144 ft | 396 kts | 215° |
| 2026-05-06 07:35 | -26.79388 | -48.94587 | 34142 ft | 396 kts | 215° |
| 2026-05-06 07:36 | -26.83969 | -48.97934 | 34144 ft | 396 kts | 215° |
| 2026-05-06 07:36 | -26.88578 | -49.01308 | 34149 ft | 396 kts | 215° |
| 2026-05-06 07:37 | -26.93209 | -49.04704 | 34152 ft | 395 kts | 215° |
| 2026-05-06 07:37 | -26.97787 | -49.08063 | 34151 ft | 395 kts | 215° |
| 2026-05-06 07:38 | -27.02393 | -49.11445 | 34151 ft | 395 kts | 215° |
| 2026-05-06 07:38 | -27.06985 | -49.14822 | 34153 ft | 394 kts | 215° |
| 2026-05-06 07:39 | -27.11577 | -49.18203 | 34147 ft | 395 kts | 215° |
| 2026-05-06 07:39 | -27.16155 | -49.21577 | 34152 ft | 393 kts | 215° |
| 2026-05-06 07:40 | -27.20738 | -49.24954 | 34157 ft | 393 kts | 216° |
| 2026-05-06 07:40 | -27.25293 | -49.28317 | 34159 ft | 393 kts | 216° |
| 2026-05-06 07:41 | -27.29883 | -49.31710 | 34161 ft | 393 kts | 216° |
| 2026-05-06 07:41 | -27.34446 | -49.35088 | 34170 ft | 393 kts | 215° |
| 2026-05-06 07:42 | -27.38997 | -49.38457 | 34188 ft | 392 kts | 215° |
| 2026-05-06 07:42 | -27.43543 | -49.41826 | 34194 ft | 392 kts | 215° |
| 2026-05-06 07:43 | -27.48114 | -49.45216 | 34190 ft | 392 kts | 216° |
| 2026-05-06 07:43 | -27.52650 | -49.48594 | 34200 ft | 391 kts | 216° |
| 2026-05-06 07:44 | -27.56981 | -49.52271 | 34205 ft | 390 kts | 221° |
| 2026-05-06 07:44 | -27.61061 | -49.56293 | 34211 ft | 389 kts | 223° |
| 2026-05-06 07:45 | -27.65102 | -49.60337 | 34216 ft | 388 kts | 223° |
| 2026-05-06 07:45 | -27.69120 | -49.64370 | 34215 ft | 389 kts | 223° |
| 2026-05-06 07:46 | -27.73163 | -49.68430 | 34226 ft | 389 kts | 223° |
| 2026-05-06 07:46 | -27.77208 | -49.72505 | 34233 ft | 387 kts | 223° |
| 2026-05-06 07:47 | -27.81216 | -49.76540 | 34239 ft | 387 kts | 223° |
| 2026-05-06 07:47 | -27.85224 | -49.80584 | 34242 ft | 387 kts | 223° |
| 2026-05-06 07:48 | -27.89227 | -49.84627 | 34249 ft | 386 kts | 223° |
| 2026-05-06 07:48 | -27.93229 | -49.88670 | 34255 ft | 386 kts | 223° |
| 2026-05-06 07:49 | -27.97219 | -49.92706 | 34256 ft | 385 kts | 223° |
| 2026-05-06 07:49 | -28.01208 | -49.96745 | 34262 ft | 385 kts | 224° |
| 2026-05-06 07:50 | -28.05199 | -50.00794 | 34259 ft | 387 kts | 223° |
| 2026-05-06 07:50 | -28.09202 | -50.04857 | 34262 ft | 387 kts | 224° |
| 2026-05-06 07:51 | -28.13237 | -50.08956 | 34268 ft | 386 kts | 224° |
| 2026-05-06 07:51 | -28.17221 | -50.13010 | 34268 ft | 385 kts | 223° |
| 2026-05-06 07:52 | -28.21180 | -50.17038 | 34269 ft | 384 kts | 224° |
| 2026-05-06 07:52 | -28.25148 | -50.21084 | 34260 ft | 384 kts | 223° |
| 2026-05-06 07:53 | -28.29127 | -50.25144 | 34257 ft | 385 kts | 223° |
| 2026-05-06 07:53 | -28.33121 | -50.29223 | 34256 ft | 385 kts | 224° |
| 2026-05-06 07:54 | -28.37076 | -50.33267 | 34253 ft | 384 kts | 224° |
| 2026-05-06 07:54 | -28.41045 | -50.37328 | 34256 ft | 384 kts | 224° |
| 2026-05-06 07:55 | -28.45012 | -50.41396 | 34253 ft | 384 kts | 224° |
| 2026-05-06 07:55 | -28.48982 | -50.45463 | 34253 ft | 384 kts | 224° |
| 2026-05-06 07:56 | -28.52945 | -50.49533 | 34253 ft | 384 kts | 224° |
| 2026-05-06 07:56 | -28.56910 | -50.53608 | 34248 ft | 385 kts | 224° |
| 2026-05-06 07:57 | -28.60869 | -50.57686 | 34241 ft | 384 kts | 224° |
| 2026-05-06 07:57 | -28.64820 | -50.61751 | 34235 ft | 384 kts | 224° |
| 2026-05-06 07:58 | -28.68796 | -50.65850 | 34224 ft | 384 kts | 225° |
| 2026-05-06 07:58 | -28.72746 | -50.69928 | 34215 ft | 383 kts | 225° |
| 2026-05-06 07:59 | -28.76689 | -50.74003 | 34201 ft | 384 kts | 224° |
| 2026-05-06 07:59 | -28.80626 | -50.78079 | 34199 ft | 383 kts | 224° |
| 2026-05-06 08:00 | -28.84591 | -50.82181 | 34199 ft | 383 kts | 224° |
| 2026-05-06 08:00 | -28.88534 | -50.86269 | 34203 ft | 383 kts | 225° |
| 2026-05-06 08:01 | -28.92482 | -50.90368 | 34209 ft | 384 kts | 225° |
| 2026-05-06 08:01 | -28.96420 | -50.94458 | 34204 ft | 383 kts | 225° |
| 2026-05-06 08:02 | -29.00327 | -50.98524 | 34200 ft | 382 kts | 225° |
| 2026-05-06 08:02 | -29.04268 | -51.02627 | 34196 ft | 381 kts | 225° |
| 2026-05-06 08:03 | -29.08171 | -51.06696 | 34189 ft | 381 kts | 225° |
| 2026-05-06 08:03 | -29.12092 | -51.10788 | 34181 ft | 383 kts | 225° |
| 2026-05-06 08:04 | -29.16025 | -51.14898 | 34169 ft | 383 kts | 225° |
| 2026-05-06 08:04 | -29.19791 | -51.19208 | 34158 ft | 382 kts | 230° |
| 2026-05-06 08:05 | -29.23151 | -51.23835 | 34156 ft | 380 kts | 233° |
| 2026-05-06 08:05 | -29.26410 | -51.28625 | 34151 ft | 381 kts | 233° |
| 2026-05-06 08:06 | -29.29645 | -51.33404 | 34142 ft | 381 kts | 233° |
| 2026-05-06 08:06 | -29.32883 | -51.38201 | 34141 ft | 380 kts | 233° |
| 2026-05-06 08:07 | -29.36109 | -51.42981 | 34131 ft | 380 kts | 233° |
| 2026-05-06 08:07 | -29.39333 | -51.47773 | 34131 ft | 379 kts | 233° |
| 2026-05-06 08:08 | -29.42556 | -51.52564 | 34122 ft | 380 kts | 233° |
| 2026-05-06 08:08 | -29.45760 | -51.57336 | 34115 ft | 379 kts | 233° |
| 2026-05-06 08:09 | -29.48973 | -51.62124 | 34101 ft | 379 kts | 233° |
| 2026-05-06 08:09 | -29.52192 | -51.66930 | 34096 ft | 380 kts | 233° |
| 2026-05-06 08:10 | -29.55405 | -51.71726 | 34084 ft | 380 kts | 234° |
| 2026-05-06 08:10 | -29.58629 | -51.76555 | 34083 ft | 380 kts | 234° |
| 2026-05-06 08:11 | -29.61835 | -51.81354 | 34070 ft | 380 kts | 234° |
| 2026-05-06 08:11 | -29.65035 | -51.86149 | 34062 ft | 379 kts | 234° |
| 2026-05-06 08:12 | -29.68242 | -51.90969 | 34068 ft | 379 kts | 234° |
| 2026-05-06 08:12 | -29.71438 | -51.95769 | 34064 ft | 379 kts | 234° |
| 2026-05-06 08:13 | -29.74616 | -52.00552 | 34057 ft | 378 kts | 234° |
| 2026-05-06 08:13 | -29.77806 | -52.05358 | 34060 ft | 377 kts | 234° |
| 2026-05-06 08:14 | -29.80983 | -52.10147 | 34054 ft | 377 kts | 234° |
| 2026-05-06 08:14 | -29.84172 | -52.14962 | 34048 ft | 378 kts | 234° |
| 2026-05-06 08:15 | -29.87355 | -52.19776 | 34043 ft | 378 kts | 234° |
| 2026-05-06 08:15 | -29.90526 | -52.24576 | 34040 ft | 378 kts | 234° |
| 2026-05-06 08:16 | -29.93707 | -52.29396 | 34037 ft | 379 kts | 235° |
| 2026-05-06 08:16 | -29.96894 | -52.34235 | 34035 ft | 379 kts | 234° |
| 2026-05-06 08:17 | -30.00082 | -52.39082 | 34038 ft | 380 kts | 234° |
| 2026-05-06 08:17 | -30.03278 | -52.43941 | 34037 ft | 380 kts | 234° |
| 2026-05-06 08:18 | -30.06450 | -52.48774 | 34035 ft | 380 kts | 234° |
| 2026-05-06 08:18 | -30.09640 | -52.53632 | 34035 ft | 380 kts | 234° |
| 2026-05-06 08:19 | -30.12837 | -52.58516 | 34033 ft | 380 kts | 234° |
| 2026-05-06 08:19 | -30.16018 | -52.63374 | 34031 ft | 380 kts | 234° |
| 2026-05-06 08:20 | -30.19198 | -52.68241 | 34032 ft | 380 kts | 235° |
| 2026-05-06 08:20 | -30.22395 | -52.73139 | 34030 ft | 381 kts | 235° |
| 2026-05-06 08:21 | -30.25558 | -52.77992 | 34031 ft | 380 kts | 235° |
| 2026-05-06 08:21 | -30.28746 | -52.82891 | 34033 ft | 380 kts | 235° |
| 2026-05-06 08:22 | -30.31902 | -52.87746 | 34034 ft | 380 kts | 235° |
| 2026-05-06 08:22 | -30.35072 | -52.92619 | 34036 ft | 379 kts | 235° |
| 2026-05-06 08:23 | -30.38250 | -52.97519 | 34039 ft | 379 kts | 235° |
| 2026-05-06 08:23 | -30.41403 | -53.02384 | 34037 ft | 380 kts | 235° |
| 2026-05-06 08:24 | -30.44578 | -53.07290 | 34034 ft | 380 kts | 236° |
| 2026-05-06 08:24 | -30.47725 | -53.12163 | 34032 ft | 379 kts | 236° |
| 2026-05-06 08:25 | -30.50901 | -53.17082 | 34031 ft | 380 kts | 236° |
| 2026-05-06 08:25 | -30.54049 | -53.21965 | 34028 ft | 379 kts | 235° |
| 2026-05-06 08:26 | -30.57207 | -53.26870 | 34028 ft | 379 kts | 236° |
| 2026-05-06 08:26 | -30.60352 | -53.31765 | 34029 ft | 380 kts | 235° |
| 2026-05-06 08:27 | -30.63504 | -53.36669 | 34033 ft | 379 kts | 235° |
| 2026-05-06 08:27 | -30.66664 | -53.41596 | 34036 ft | 380 kts | 236° |
| 2026-05-06 08:28 | -30.69805 | -53.46496 | 34040 ft | 379 kts | 236° |
| 2026-05-06 08:28 | -30.72943 | -53.51395 | 34041 ft | 379 kts | 236° |
| 2026-05-06 08:29 | -30.76085 | -53.56309 | 34040 ft | 378 kts | 236° |
| 2026-05-06 08:29 | -30.79205 | -53.61195 | 34040 ft | 378 kts | 236° |
| 2026-05-06 08:30 | -30.82332 | -53.66105 | 34042 ft | 377 kts | 237° |
| 2026-05-06 08:30 | -30.85455 | -53.71006 | 34038 ft | 378 kts | 236° |
| 2026-05-06 08:31 | -30.88583 | -53.75923 | 34043 ft | 377 kts | 236° |
| 2026-05-06 08:31 | -30.91693 | -53.80818 | 34042 ft | 377 kts | 236° |
| 2026-05-06 08:32 | -30.94815 | -53.85733 | 34050 ft | 377 kts | 237° |
| 2026-05-06 08:32 | -30.97919 | -53.90636 | 34050 ft | 376 kts | 237° |
| 2026-05-06 08:33 | -31.01016 | -53.95527 | 34052 ft | 377 kts | 237° |
| 2026-05-06 08:33 | -31.04108 | -54.00425 | 34058 ft | 376 kts | 237° |
| 2026-05-06 08:34 | -31.08761 | -54.07794 | 34059 ft | 377 kts | 237° |
| 2026-05-06 08:35 | -31.11867 | -54.12734 | 34053 ft | 377 kts | 237° |
| 2026-05-06 08:35 | -31.14971 | -54.17661 | 34048 ft | 377 kts | 237° |
| 2026-05-06 08:36 | -31.18080 | -54.22607 | 34044 ft | 378 kts | 237° |
| 2026-05-06 08:36 | -31.21174 | -54.27530 | 34039 ft | 378 kts | 237° |
| 2026-05-06 08:37 | -31.24288 | -54.32501 | 34034 ft | 379 kts | 237° |
| 2026-05-06 08:37 | -31.27404 | -54.37479 | 34025 ft | 379 kts | 237° |
| 2026-05-06 08:38 | -31.30504 | -54.42437 | 34028 ft | 378 kts | 237° |
| 2026-05-06 08:38 | -31.33595 | -54.47387 | 34020 ft | 379 kts | 237° |
| 2026-05-06 08:39 | -31.36680 | -54.52337 | 34010 ft | 378 kts | 237° |
| 2026-05-06 08:39 | -31.39774 | -54.57303 | 34008 ft | 378 kts | 237° |
| 2026-05-06 08:40 | -31.42957 | -54.62197 | 34006 ft | 380 kts | 234° |
| 2026-05-06 08:40 | -31.46519 | -54.66783 | 34008 ft | 384 kts | 230° |
| 2026-05-06 08:41 | -31.50411 | -54.71085 | 34004 ft | 384 kts | 229° |
| 2026-05-06 08:41 | -31.54333 | -54.75319 | 34002 ft | 385 kts | 229° |
| 2026-05-06 08:42 | -31.58296 | -54.79597 | 33997 ft | 386 kts | 228° |
| 2026-05-06 08:42 | -31.62225 | -54.83837 | 33998 ft | 386 kts | 228° |
| 2026-05-06 08:43 | -31.66154 | -54.88083 | 33996 ft | 386 kts | 228° |
| 2026-05-06 08:43 | -31.70102 | -54.92358 | 33991 ft | 386 kts | 228° |
| 2026-05-06 08:44 | -31.74064 | -54.96648 | 33991 ft | 386 kts | 229° |
| 2026-05-06 08:44 | -31.77998 | -55.00915 | 33992 ft | 388 kts | 229° |
| 2026-05-06 08:45 | -31.81972 | -55.05230 | 33993 ft | 388 kts | 229° |
| 2026-05-06 08:45 | -31.85935 | -55.09540 | 33989 ft | 388 kts | 229° |
| 2026-05-06 08:46 | -31.89882 | -55.13837 | 33986 ft | 388 kts | 229° |
| 2026-05-06 08:46 | -31.93850 | -55.18162 | 33982 ft | 388 kts | 229° |
| 2026-05-06 08:47 | -31.97806 | -55.22479 | 33979 ft | 386 kts | 229° |
| 2026-05-06 08:47 | -32.01743 | -55.26778 | 33982 ft | 389 kts | 229° |
| 2026-05-06 08:48 | -32.05702 | -55.31110 | 33977 ft | 389 kts | 229° |
| 2026-05-06 08:48 | -32.09679 | -55.35461 | 33973 ft | 389 kts | 229° |
| 2026-05-06 08:49 | -32.13640 | -55.39808 | 33973 ft | 389 kts | 229° |
| 2026-05-06 08:49 | -32.17581 | -55.44134 | 33970 ft | 389 kts | 229° |
| 2026-05-06 08:50 | -32.21526 | -55.48467 | 33970 ft | 387 kts | 230° |
| 2026-05-06 08:50 | -32.25477 | -55.52821 | 33969 ft | 387 kts | 229° |
| 2026-05-06 08:51 | -32.29413 | -55.57153 | 33964 ft | 388 kts | 230° |
| 2026-05-06 08:51 | -32.33336 | -55.61485 | 33968 ft | 388 kts | 230° |
| 2026-05-06 08:52 | -32.37282 | -55.65846 | 33968 ft | 387 kts | 230° |
| 2026-05-06 08:52 | -32.41195 | -55.70171 | 33967 ft | 388 kts | 230° |
| 2026-05-06 08:53 | -32.45123 | -55.74525 | 33962 ft | 386 kts | 230° |
| 2026-05-06 08:53 | -32.49038 | -55.78860 | 33957 ft | 386 kts | 231° |
| 2026-05-06 08:54 | -32.52948 | -55.83207 | 33961 ft | 385 kts | 230° |
| 2026-05-06 08:54 | -32.56853 | -55.87545 | 33959 ft | 386 kts | 231° |
| 2026-05-06 08:55 | -32.60741 | -55.91877 | 33964 ft | 386 kts | 231° |
| 2026-05-06 08:55 | -32.64665 | -55.96248 | 33960 ft | 385 kts | 231° |
| 2026-05-06 08:56 | -32.68565 | -56.00599 | 33953 ft | 384 kts | 231° |
| 2026-05-06 08:56 | -32.72435 | -56.04925 | 33951 ft | 384 kts | 231° |
| 2026-05-06 08:57 | -32.76329 | -56.09280 | 33948 ft | 384 kts | 231° |
| 2026-05-06 08:57 | -32.80198 | -56.13615 | 33951 ft | 384 kts | 231° |
| 2026-05-06 08:58 | -32.84084 | -56.17974 | 33935 ft | 385 kts | 231° |
| 2026-05-06 08:58 | -32.87968 | -56.22339 | 33932 ft | 383 kts | 231° |
| 2026-05-06 08:59 | -32.91848 | -56.26698 | 33935 ft | 384 kts | 232° |
| 2026-05-06 08:59 | -32.95726 | -56.31065 | 33930 ft | 384 kts | 231° |
| 2026-05-06 09:00 | -32.99601 | -56.35439 | 33935 ft | 383 kts | 231° |
| 2026-05-06 09:00 | -33.03457 | -56.39806 | 33934 ft | 384 kts | 232° |
| 2026-05-06 09:01 | -33.07305 | -56.44175 | 33930 ft | 384 kts | 232° |
| 2026-05-06 09:01 | -33.11180 | -56.48581 | 33936 ft | 386 kts | 232° |
| 2026-05-06 09:02 | -33.15062 | -56.52999 | 33935 ft | 384 kts | 232° |
| 2026-05-06 09:02 | -33.18922 | -56.57404 | 33937 ft | 384 kts | 232° |
| 2026-05-06 09:03 | -33.22780 | -56.61789 | 33940 ft | 384 kts | 232° |
| 2026-05-06 09:03 | -33.26634 | -56.66187 | 33952 ft | 383 kts | 232° |
| 2026-05-06 09:04 | -33.30477 | -56.70574 | 33948 ft | 383 kts | 233° |
| 2026-05-06 09:04 | -33.34345 | -56.74999 | 33947 ft | 384 kts | 233° |
| 2026-05-06 09:05 | -33.38211 | -56.79429 | 33945 ft | 384 kts | 232° |
| 2026-05-06 09:05 | -33.42048 | -56.83826 | 33948 ft | 383 kts | 232° |
| 2026-05-06 09:06 | -33.45895 | -56.88242 | 33947 ft | 385 kts | 232° |
| 2026-05-06 09:06 | -33.49765 | -56.92697 | 33943 ft | 385 kts | 232° |
| 2026-05-06 09:07 | -33.53621 | -56.97134 | 33933 ft | 388 kts | 232° |
| 2026-05-06 09:07 | -33.57503 | -57.01609 | 33928 ft | 387 kts | 232° |
| 2026-05-06 09:08 | -33.61386 | -57.06092 | 33933 ft | 388 kts | 232° |
| 2026-05-06 09:08 | -33.65279 | -57.10590 | 33932 ft | 389 kts | 232° |
| 2026-05-06 09:09 | -33.69169 | -57.15091 | 33934 ft | 389 kts | 232° |
| 2026-05-06 09:09 | -33.73053 | -57.19594 | 33934 ft | 388 kts | 232° |
| 2026-05-06 09:10 | -33.76907 | -57.24067 | 33932 ft | 388 kts | 232° |
| 2026-05-06 09:10 | -33.80805 | -57.28596 | 33937 ft | 389 kts | 232° |
| 2026-05-06 09:11 | -33.84681 | -57.33106 | 33936 ft | 389 kts | 232° |
| 2026-05-06 09:11 | -33.88587 | -57.37656 | 33925 ft | 391 kts | 231° |
| 2026-05-06 09:12 | -33.92482 | -57.42197 | 33931 ft | 393 kts | 232° |
| 2026-05-06 09:12 | -33.96378 | -57.46746 | 33932 ft | 391 kts | 231° |
| 2026-05-06 09:13 | -34.00294 | -57.51324 | 33926 ft | 392 kts | 232° |
| 2026-05-06 09:13 | -34.04149 | -57.55830 | 33331 ft | 382 kts | 231° |
| 2026-05-06 09:13 | -34.06044 | -57.58058 | 31994 ft | 387 kts | 231° |
| 2026-05-06 09:14 | -34.07959 | -57.60324 | 30170 ft | 400 kts | 229° |
| 2026-05-06 09:14 | -34.09935 | -57.62663 | 28099 ft | 414 kts | 229° |
| 2026-05-06 09:14 | -34.11997 | -57.65081 | 26202 ft | 420 kts | 229° |
| 2026-05-06 09:14 | -34.14063 | -57.67501 | 24864 ft | 413 kts | 229° |
| 2026-05-06 09:15 | -34.16089 | -57.69871 | 23584 ft | 407 kts | 229° |
| 2026-05-06 09:15 | -34.18089 | -57.72217 | 22267 ft | 403 kts | 229° |
| 2026-05-06 09:15 | -34.20063 | -57.74538 | 21090 ft | 395 kts | 229° |
| 2026-05-06 09:15 | -34.21969 | -57.76782 | 20563 ft | 378 kts | 229° |
| 2026-05-06 09:16 | -34.23851 | -57.79000 | 20118 ft | 377 kts | 229° |
| 2026-05-06 09:16 | -34.25720 | -57.81210 | 19645 ft | 375 kts | 229° |
| 2026-05-06 09:16 | -34.27582 | -57.83412 | 19170 ft | 372 kts | 229° |
| 2026-05-06 09:16 | -34.29402 | -57.85561 | 18710 ft | 368 kts | 229° |
| 2026-05-06 09:17 | -34.31233 | -57.87730 | 18239 ft | 365 kts | 229° |
| 2026-05-06 09:17 | -34.33047 | -57.89877 | 17770 ft | 362 kts | 229° |
| 2026-05-06 09:17 | -34.34834 | -57.91995 | 17286 ft | 359 kts | 229° |
| 2026-05-06 09:17 | -34.36621 | -57.94114 | 16751 ft | 359 kts | 229° |
| 2026-05-06 09:18 | -34.38385 | -57.96208 | 16208 ft | 358 kts | 229° |
| 2026-05-06 09:18 | -34.40176 | -57.98334 | 15650 ft | 358 kts | 229° |
| 2026-05-06 09:18 | -34.41915 | -58.00440 | 15090 ft | 357 kts | 230° |
| 2026-05-06 09:18 | -34.43621 | -58.02639 | 14494 ft | 358 kts | 231° |
| 2026-05-06 09:19 | -34.45321 | -58.04853 | 13909 ft | 359 kts | 231° |
| 2026-05-06 09:19 | -34.47004 | -58.07049 | 13356 ft | 358 kts | 231° |
| 2026-05-06 09:19 | -34.48711 | -58.09271 | 12811 ft | 358 kts | 231° |
| 2026-05-06 09:19 | -34.50382 | -58.11451 | 12282 ft | 357 kts | 231° |
| 2026-05-06 09:20 | -34.52075 | -58.13663 | 11725 ft | 357 kts | 231° |
| 2026-05-06 09:20 | -34.53746 | -58.15843 | 11216 ft | 356 kts | 231° |
| 2026-05-06 09:20 | -34.55422 | -58.18033 | 10677 ft | 355 kts | 231° |
| 2026-05-06 09:20 | -34.57096 | -58.20222 | 10315 ft | 347 kts | 231° |
| 2026-05-06 09:21 | -34.58708 | -58.22327 | 10166 ft | 333 kts | 232° |
| 2026-05-06 09:21 | -34.60249 | -58.24341 | 10053 ft | 318 kts | 232° |
| 2026-05-06 09:21 | -34.61723 | -58.26269 | 9960 ft | 305 kts | 232° |
| 2026-05-06 09:21 | -34.63134 | -58.28117 | 9704 ft | 298 kts | 232° |
| 2026-05-06 09:22 | -34.64536 | -58.29966 | 9294 ft | 298 kts | 232° |
| 2026-05-06 09:22 | -34.65930 | -58.31804 | 8903 ft | 297 kts | 232° |
| 2026-05-06 09:22 | -34.67326 | -58.33644 | 8518 ft | 296 kts | 231° |
| 2026-05-06 09:22 | -34.68713 | -58.35469 | 8219 ft | 291 kts | 231° |
| 2026-05-06 09:23 | -34.69982 | -58.37355 | 7855 ft | 283 kts | 244° |
| 2026-05-06 09:23 | -34.70565 | -58.39590 | 7468 ft | 274 kts | 265° |
| 2026-05-06 09:23 | -34.70761 | -58.41868 | 7111 ft | 270 kts | 269° |
| 2026-05-06 09:23 | -34.70888 | -58.44154 | 6721 ft | 269 kts | 269° |
| 2026-05-06 09:24 | -34.70998 | -58.46414 | 6342 ft | 268 kts | 270° |
| 2026-05-06 09:24 | -34.71102 | -58.48637 | 5968 ft | 267 kts | 270° |
| 2026-05-06 09:24 | -34.71204 | -58.50889 | 5564 ft | 267 kts | 270° |
| 2026-05-06 09:24 | -34.71305 | -58.53154 | 5155 ft | 267 kts | 270° |
| 2026-05-06 09:25 | -34.71407 | -58.55379 | 4762 ft | 267 kts | 270° |
| 2026-05-06 09:25 | -34.71510 | -58.57626 | 4371 ft | 267 kts | 270° |
| 2026-05-06 09:25 | -34.71610 | -58.59842 | 4178 ft | 258 kts | 270° |
| 2026-05-06 09:25 | -34.71708 | -58.61979 | 4026 ft | 249 kts | 270° |
| 2026-05-06 09:26 | -34.71806 | -58.64028 | 3998 ft | 234 kts | 270° |
| 2026-05-06 09:26 | -34.71904 | -58.65935 | 4011 ft | 218 kts | 270° |
| 2026-05-06 09:26 | -34.72006 | -58.67686 | 4051 ft | 196 kts | 270° |
| 2026-05-06 09:26 | -34.72104 | -58.69292 | 3867 ft | 187 kts | 270° |
| 2026-05-06 09:27 | -34.72205 | -58.70822 | 3675 ft | 178 kts | 269° |
| 2026-05-06 09:27 | -34.72617 | -58.72239 | 3379 ft | 182 kts | 233° |
| 2026-05-06 09:27 | -34.73686 | -58.73016 | 3014 ft | 183 kts | 188° |
| 2026-05-06 09:27 | -34.74901 | -58.72764 | 2653 ft | 176 kts | 147° |
| 2026-05-06 09:28 | -34.75961 | -58.72052 | 2348 ft | 174 kts | 148° |
| 2026-05-06 09:28 | -34.77049 | -58.71433 | 2206 ft | 172 kts | 150° |
| 2026-05-06 09:28 | -34.78164 | -58.70832 | 2212 ft | 173 kts | 150° |
| 2026-05-06 09:28 | -34.79154 | -58.70075 | 2187 ft | 164 kts | 121° |
| 2026-05-06 09:29 | -34.79588 | -58.68840 | 2202 ft | 158 kts | 98° |
| 2026-05-06 09:29 | -34.79791 | -58.67568 | 2059 ft | 147 kts | 95° |
| 2026-05-06 09:29 | -34.79966 | -58.66351 | 1853 ft | 143 kts | 95° |
| 2026-05-06 09:29 | -34.80156 | -58.65167 | 1666 ft | 142 kts | 96° |
| 2026-05-06 09:30 | -34.80361 | -58.63987 | 1475 ft | 142 kts | 97° |
| 2026-05-06 09:30 | -34.80569 | -58.62824 | 1295 ft | 141 kts | 98° |
| 2026-05-06 09:30 | -34.80783 | -58.61664 | 1105 ft | 141 kts | 98° |
| 2026-05-06 09:30 | -34.80991 | -58.60488 | 920 ft | 141 kts | 98° |
| 2026-05-06 09:31 | -34.81193 | -58.59329 | 718 ft | 140 kts | 99° |
| 2026-05-06 09:31 | -34.81396 | -58.58181 | 542 ft | 140 kts | 100° |
| 2026-05-06 09:31 | -34.81607 | -58.57021 | 370 ft | 139 kts | 101° |
| 2026-05-06 09:31 | -34.81810 | -58.55873 | 189 ft | 139 kts | 102° |
| 2026-05-06 09:32 | -34.82018 | -58.54727 | 73 ft | 131 kts | 102° |
| 2026-05-06 09:32 | -34.82175 | -58.53840 | 72 ft | 83 kts | 102° |
| 2026-05-06 09:32 | -34.82267 | -58.53327 | 72 ft | 52 kts | 102° |
| 2026-05-06 09:32 | -34.82330 | -58.52969 | 72 ft | 20 kts | 101° |
| 2026-05-06 09:33 | -34.82298 | -58.52887 | 72 ft | 12 kts | 359° |
| 2026-05-06 09:33 | -34.82211 | -58.52914 | 72 ft | 13 kts | 343° |
| 2026-05-06 09:33 | -34.82120 | -58.52946 | 72 ft | 13 kts | 345° |
| 2026-05-06 09:33 | -34.82024 | -58.52977 | 72 ft | 14 kts | 346° |
| 2026-05-06 09:34 | -34.81926 | -58.53009 | 72 ft | 14 kts | 342° |
| 2026-05-06 09:34 | -34.81826 | -58.53047 | 72 ft | 15 kts | 343° |
| 2026-05-06 09:34 | -34.81738 | -58.53079 | 72 ft | 0 kts | 344° |
| 2026-05-06 09:37 | -34.81737 | -58.53079 | 72 ft | 0 kts | 344° |
| 2026-05-06 09:37 | -34.81722 | -58.53085 | 72 ft | 4 kts | 344° |
| 2026-05-06 09:37 | -34.81683 | -58.53098 | 72 ft | 7 kts | 344° |
| 2026-05-06 09:38 | -34.81622 | -58.53120 | 72 ft | 10 kts | 344° |
| 2026-05-06 09:38 | -34.81551 | -58.53173 | 72 ft | 13 kts | 310° |
| 2026-05-06 09:38 | -34.81496 | -58.53280 | 72 ft | 16 kts | 299° |
| 2026-05-06 09:38 | -34.81438 | -58.53407 | 72 ft | 18 kts | 299° |
| 2026-05-06 09:39 | -34.81374 | -58.53550 | 72 ft | 19 kts | 298° |
| 2026-05-06 09:39 | -34.81323 | -58.53680 | 72 ft | 6 kts | 286° |
| 2026-05-06 09:39 | -34.81321 | -58.53687 | 72 ft | 0 kts | 284° |